sensor_id;sensor_type;location;lat;lon;timestamp;pressure;altitude;pressure_sealevel;temperature
14851;BMP180;7517;48.400;11.770;2024-02-23T00:02:36;94445.00;;;12.80
14851;BMP180;7517;48.400;11.770;2024-02-23T00:05:25;94467.00;;;12.80
14851;BMP180;7517;48.400;11.770;2024-02-23T00:08:11;94460.00;;;12.70
14851;BMP180;7517;48.400;11.770;2024-02-23T00:10:58;94460.00;;;12.70
14851;BMP180;7517;48.400;11.770;2024-02-23T00:13:44;94468.00;;;12.60
14851;BMP180;7517;48.400;11.770;2024-02-23T00:16:38;94465.00;;;12.60
14851;BMP180;7517;48.400;11.770;2024-02-23T00:19:24;94455.00;;;12.50
14851;BMP180;7517;48.400;11.770;2024-02-23T00:22:10;94472.00;;;12.40
14851;BMP180;7517;48.400;11.770;2024-02-23T00:24:56;94460.00;;;12.40
14851;BMP180;7517;48.400;11.770;2024-02-23T00:27:42;94471.00;;;12.30
14851;BMP180;7517;48.400;11.770;2024-02-23T00:30:28;94472.00;;;12.30
14851;BMP180;7517;48.400;11.770;2024-02-23T00:33:18;94479.00;;;12.20
14851;BMP180;7517;48.400;11.770;2024-02-23T00:36:06;94492.00;;;12.20
14851;BMP180;7517;48.400;11.770;2024-02-23T00:38:53;94489.00;;;12.10
14851;BMP180;7517;48.400;11.770;2024-02-23T00:41:39;94491.00;;;12.10
14851;BMP180;7517;48.400;11.770;2024-02-23T00:44:25;94497.00;;;12.00
14851;BMP180;7517;48.400;11.770;2024-02-23T00:47:11;94505.00;;;12.00
14851;BMP180;7517;48.400;11.770;2024-02-23T00:49:59;94512.00;;;11.90
14851;BMP180;7517;48.400;11.770;2024-02-23T00:52:44;94511.00;;;11.90
14851;BMP180;7517;48.400;11.770;2024-02-23T00:55:31;94510.00;;;11.90
14851;BMP180;7517;48.400;11.770;2024-02-23T00:58:17;94516.00;;;11.80
14851;BMP180;7517;48.400;11.770;2024-02-23T01:01:04;94521.00;;;11.80
14851;BMP180;7517;48.400;11.770;2024-02-23T01:03:50;94518.00;;;11.70
14851;BMP180;7517;48.400;11.770;2024-02-23T01:06:43;94516.00;;;11.70
14851;BMP180;7517;48.400;11.770;2024-02-23T01:09:28;94518.00;;;11.70
14851;BMP180;7517;48.400;11.770;2024-02-23T01:12:14;94521.00;;;11.70
14851;BMP180;7517;48.400;11.770;2024-02-23T01:15:01;94523.00;;;11.60
14851;BMP180;7517;48.400;11.770;2024-02-23T01:17:46;94529.00;;;11.60
14851;BMP180;7517;48.400;11.770;2024-02-23T01:20:34;94528.00;;;11.60
14851;BMP180;7517;48.400;11.770;2024-02-23T01:23:22;94532.00;;;11.60
14851;BMP180;7517;48.400;11.770;2024-02-23T01:26:09;94531.00;;;11.50
14851;BMP180;7517;48.400;11.770;2024-02-23T01:28:55;94534.00;;;11.50
14851;BMP180;7517;48.400;11.770;2024-02-23T01:31:42;94538.00;;;11.50
14851;BMP180;7517;48.400;11.770;2024-02-23T01:34:28;94525.00;;;11.40
14851;BMP180;7517;48.400;11.770;2024-02-23T01:37:14;94541.00;;;11.40
14851;BMP180;7517;48.400;11.770;2024-02-23T01:40:02;94535.00;;;11.40
14851;BMP180;7517;48.400;11.770;2024-02-23T01:42:48;94540.00;;;11.30
14851;BMP180;7517;48.400;11.770;2024-02-23T01:45:35;94547.00;;;11.30
14851;BMP180;7517;48.400;11.770;2024-02-23T01:48:22;94543.00;;;11.30
14851;BMP180;7517;48.400;11.770;2024-02-23T01:51:08;94540.00;;;11.30
14851;BMP180;7517;48.400;11.770;2024-02-23T01:53:55;94537.00;;;11.30
14851;BMP180;7517;48.400;11.770;2024-02-23T01:56:40;94549.00;;;11.30
14851;BMP180;7517;48.400;11.770;2024-02-23T01:59:27;94561.00;;;11.30
14851;BMP180;7517;48.400;11.770;2024-02-23T02:02:14;94554.00;;;11.20
14851;BMP180;7517;48.400;11.770;2024-02-23T02:05:01;94546.00;;;11.20
14851;BMP180;7517;48.400;11.770;2024-02-23T02:07:50;94555.00;;;11.20
14851;BMP180;7517;48.400;11.770;2024-02-23T02:10:39;94568.00;;;11.20
14851;BMP180;7517;48.400;11.770;2024-02-23T02:13:28;94569.00;;;11.20
14851;BMP180;7517;48.400;11.770;2024-02-23T02:16:14;94568.00;;;11.20
14851;BMP180;7517;48.400;11.770;2024-02-23T02:19:00;94576.00;;;11.10
14851;BMP180;7517;48.400;11.770;2024-02-23T02:21:47;94571.00;;;11.10
14851;BMP180;7517;48.400;11.770;2024-02-23T02:24:35;94574.00;;;11.10
14851;BMP180;7517;48.400;11.770;2024-02-23T02:27:25;94601.00;;;11.10
14851;BMP180;7517;48.400;11.770;2024-02-23T02:30:13;94593.00;;;11.00
14851;BMP180;7517;48.400;11.770;2024-02-23T02:32:59;94590.00;;;11.00
14851;BMP180;7517;48.400;11.770;2024-02-23T02:35:45;94594.00;;;11.00
14851;BMP180;7517;48.400;11.770;2024-02-23T02:38:31;94602.00;;;11.00
14851;BMP180;7517;48.400;11.770;2024-02-23T02:41:19;94615.00;;;11.00
14851;BMP180;7517;48.400;11.770;2024-02-23T02:44:05;94613.00;;;11.00
14851;BMP180;7517;48.400;11.770;2024-02-23T02:46:57;94621.00;;;11.00
14851;BMP180;7517;48.400;11.770;2024-02-23T02:49:43;94636.00;;;11.00
14851;BMP180;7517;48.400;11.770;2024-02-23T02:52:29;94641.00;;;11.00
14851;BMP180;7517;48.400;11.770;2024-02-23T02:55:16;94647.00;;;11.00
14851;BMP180;7517;48.400;11.770;2024-02-23T02:58:02;94647.00;;;11.00
14851;BMP180;7517;48.400;11.770;2024-02-23T03:00:48;94655.00;;;10.90
14851;BMP180;7517;48.400;11.770;2024-02-23T03:03:35;94656.00;;;10.90
14851;BMP180;7517;48.400;11.770;2024-02-23T03:06:21;94668.00;;;10.80
14851;BMP180;7517;48.400;11.770;2024-02-23T03:09:07;94662.00;;;10.70
14851;BMP180;7517;48.400;11.770;2024-02-23T03:11:54;94654.00;;;10.60
14851;BMP180;7517;48.400;11.770;2024-02-23T03:14:41;94660.00;;;10.40
14851;BMP180;7517;48.400;11.770;2024-02-23T03:17:27;94664.00;;;10.30
14851;BMP180;7517;48.400;11.770;2024-02-23T03:20:16;94666.00;;;10.20
14851;BMP180;7517;48.400;11.770;2024-02-23T03:23:02;94669.00;;;10.20
14851;BMP180;7517;48.400;11.770;2024-02-23T03:25:48;94655.00;;;10.10
14851;BMP180;7517;48.400;11.770;2024-02-23T03:28:35;94662.00;;;10.00
14851;BMP180;7517;48.400;11.770;2024-02-23T03:31:21;94658.00;;;9.90
14851;BMP180;7517;48.400;11.770;2024-02-23T03:34:07;94659.00;;;9.90
14851;BMP180;7517;48.400;11.770;2024-02-23T03:36:55;94662.00;;;9.80
14851;BMP180;7517;48.400;11.770;2024-02-23T03:39:41;94652.00;;;9.70
14851;BMP180;7517;48.400;11.770;2024-02-23T03:42:29;94653.00;;;9.70
14851;BMP180;7517;48.400;11.770;2024-02-23T03:45:15;94670.00;;;9.70
14851;BMP180;7517;48.400;11.770;2024-02-23T03:48:04;94660.00;;;9.60
14851;BMP180;7517;48.400;11.770;2024-02-23T03:50:50;94648.00;;;9.50
14851;BMP180;7517;48.400;11.770;2024-02-23T03:53:40;94654.00;;;9.50
14851;BMP180;7517;48.400;11.770;2024-02-23T03:56:26;94654.00;;;9.40
14851;BMP180;7517;48.400;11.770;2024-02-23T03:59:12;94655.00;;;9.40
14851;BMP180;7517;48.400;11.770;2024-02-23T04:02:03;94650.00;;;9.40
14851;BMP180;7517;48.400;11.770;2024-02-23T04:04:49;94644.00;;;9.30
14851;BMP180;7517;48.400;11.770;2024-02-23T04:07:34;94646.00;;;9.30
14851;BMP180;7517;48.400;11.770;2024-02-23T04:10:22;94650.00;;;9.30
14851;BMP180;7517;48.400;11.770;2024-02-23T04:13:08;94649.00;;;9.30
14851;BMP180;7517;48.400;11.770;2024-02-23T04:15:58;94648.00;;;9.30
14851;BMP180;7517;48.400;11.770;2024-02-23T04:18:46;94649.00;;;9.30
14851;BMP180;7517;48.400;11.770;2024-02-23T04:21:32;94651.00;;;9.30
14851;BMP180;7517;48.400;11.770;2024-02-23T04:24:20;94653.00;;;9.30
14851;BMP180;7517;48.400;11.770;2024-02-23T04:27:08;94644.00;;;9.30
14851;BMP180;7517;48.400;11.770;2024-02-23T04:29:55;94651.00;;;9.30
14851;BMP180;7517;48.400;11.770;2024-02-23T04:32:41;94648.00;;;9.30
14851;BMP180;7517;48.400;11.770;2024-02-23T04:35:28;94653.00;;;9.40
14851;BMP180;7517;48.400;11.770;2024-02-23T04:38:15;94655.00;;;9.40
14851;BMP180;7517;48.400;11.770;2024-02-23T04:41:04;94643.00;;;9.40
14851;BMP180;7517;48.400;11.770;2024-02-23T04:43:51;94645.00;;;9.40
14851;BMP180;7517;48.400;11.770;2024-02-23T04:46:42;94644.00;;;9.40
14851;BMP180;7517;48.400;11.770;2024-02-23T04:49:29;94650.00;;;9.40
14851;BMP180;7517;48.400;11.770;2024-02-23T04:52:16;94646.00;;;9.40
14851;BMP180;7517;48.400;11.770;2024-02-23T04:55:01;94646.00;;;9.40
14851;BMP180;7517;48.400;11.770;2024-02-23T04:57:50;94639.00;;;9.50
14851;BMP180;7517;48.400;11.770;2024-02-23T05:00:38;94640.00;;;9.50
14851;BMP180;7517;48.400;11.770;2024-02-23T05:03:24;94654.00;;;9.50
14851;BMP180;7517;48.400;11.770;2024-02-23T05:06:11;94665.00;;;9.50
14851;BMP180;7517;48.400;11.770;2024-02-23T05:09:00;94653.00;;;9.50
14851;BMP180;7517;48.400;11.770;2024-02-23T05:11:46;94654.00;;;9.50
14851;BMP180;7517;48.400;11.770;2024-02-23T05:14:33;94655.00;;;9.50
14851;BMP180;7517;48.400;11.770;2024-02-23T05:17:21;94645.00;;;9.50
14851;BMP180;7517;48.400;11.770;2024-02-23T05:20:09;94660.00;;;9.60
14851;BMP180;7517;48.400;11.770;2024-02-23T05:22:56;94650.00;;;9.60
14851;BMP180;7517;48.400;11.770;2024-02-23T05:25:42;94647.00;;;9.60
14851;BMP180;7517;48.400;11.770;2024-02-23T05:28:28;94657.00;;;9.60
14851;BMP180;7517;48.400;11.770;2024-02-23T05:31:14;94656.00;;;9.60
14851;BMP180;7517;48.400;11.770;2024-02-23T05:34:02;94660.00;;;9.60
14851;BMP180;7517;48.400;11.770;2024-02-23T05:36:48;94675.00;;;9.60
14851;BMP180;7517;48.400;11.770;2024-02-23T05:39:36;94672.00;;;9.60
14851;BMP180;7517;48.400;11.770;2024-02-23T05:42:23;94674.00;;;9.60
14851;BMP180;7517;48.400;11.770;2024-02-23T05:45:09;94676.00;;;9.60
14851;BMP180;7517;48.400;11.770;2024-02-23T05:47:56;94685.00;;;9.60
14851;BMP180;7517;48.400;11.770;2024-02-23T05:50:43;94688.00;;;9.60
14851;BMP180;7517;48.400;11.770;2024-02-23T05:53:29;94691.00;;;9.60
14851;BMP180;7517;48.400;11.770;2024-02-23T05:56:17;94700.00;;;9.60
14851;BMP180;7517;48.400;11.770;2024-02-23T05:59:04;94706.00;;;9.60
14851;BMP180;7517;48.400;11.770;2024-02-23T06:01:51;94704.00;;;9.70
14851;BMP180;7517;48.400;11.770;2024-02-23T06:04:42;94707.00;;;9.70
14851;BMP180;7517;48.400;11.770;2024-02-23T06:07:29;94713.00;;;9.70
14851;BMP180;7517;48.400;11.770;2024-02-23T06:10:16;94716.00;;;9.70
14851;BMP180;7517;48.400;11.770;2024-02-23T06:13:03;94722.00;;;9.70
14851;BMP180;7517;48.400;11.770;2024-02-23T06:15:50;94728.00;;;9.70
14851;BMP180;7517;48.400;11.770;2024-02-23T06:18:35;94725.00;;;9.80
14851;BMP180;7517;48.400;11.770;2024-02-23T06:21:22;94726.00;;;9.80
14851;BMP180;7517;48.400;11.770;2024-02-23T06:24:10;94728.00;;;9.80
14851;BMP180;7517;48.400;11.770;2024-02-23T06:26:57;94732.00;;;9.80
14851;BMP180;7517;48.400;11.770;2024-02-23T06:29:43;94736.00;;;9.80
14851;BMP180;7517;48.400;11.770;2024-02-23T06:32:31;94741.00;;;9.80
14851;BMP180;7517;48.400;11.770;2024-02-23T06:35:17;94747.00;;;9.80
14851;BMP180;7517;48.400;11.770;2024-02-23T06:38:02;94743.00;;;9.80
14851;BMP180;7517;48.400;11.770;2024-02-23T06:40:53;94752.00;;;9.80
14851;BMP180;7517;48.400;11.770;2024-02-23T06:43:40;94756.00;;;9.80
14851;BMP180;7517;48.400;11.770;2024-02-23T06:46:26;94758.00;;;9.80
14851;BMP180;7517;48.400;11.770;2024-02-23T06:49:12;94754.00;;;9.80
14851;BMP180;7517;48.400;11.770;2024-02-23T06:51:58;94750.00;;;9.80
14851;BMP180;7517;48.400;11.770;2024-02-23T06:54:44;94757.00;;;9.90
14851;BMP180;7517;48.400;11.770;2024-02-23T06:57:32;94750.00;;;9.90
14851;BMP180;7517;48.400;11.770;2024-02-23T07:00:18;94742.00;;;9.90
14851;BMP180;7517;48.400;11.770;2024-02-23T07:03:04;94743.00;;;9.90
14851;BMP180;7517;48.400;11.770;2024-02-23T07:05:51;94741.00;;;9.90
14851;BMP180;7517;48.400;11.770;2024-02-23T07:08:37;94739.00;;;9.90
14851;BMP180;7517;48.400;11.770;2024-02-23T07:11:22;94745.00;;;9.90
14851;BMP180;7517;48.400;11.770;2024-02-23T07:14:12;94750.00;;;9.90
14851;BMP180;7517;48.400;11.770;2024-02-23T07:17:00;94755.00;;;9.90
14851;BMP180;7517;48.400;11.770;2024-02-23T07:19:46;94752.00;;;9.90
14851;BMP180;7517;48.400;11.770;2024-02-23T07:22:35;94748.00;;;10.00
14851;BMP180;7517;48.400;11.770;2024-02-23T07:25:21;94754.00;;;10.00
14851;BMP180;7517;48.400;11.770;2024-02-23T07:28:04;94749.00;;;10.00
14851;BMP180;7517;48.400;11.770;2024-02-23T07:30:52;94752.00;;;10.10
14851;BMP180;7517;48.400;11.770;2024-02-23T07:33:38;94763.00;;;10.10
14851;BMP180;7517;48.400;11.770;2024-02-23T07:36:24;94766.00;;;10.10
14851;BMP180;7517;48.400;11.770;2024-02-23T07:39:11;94773.00;;;10.20
14851;BMP180;7517;48.400;11.770;2024-02-23T07:41:58;94780.00;;;10.20
14851;BMP180;7517;48.400;11.770;2024-02-23T07:44:44;94795.00;;;10.20
14851;BMP180;7517;48.400;11.770;2024-02-23T07:47:32;94792.00;;;10.20
14851;BMP180;7517;48.400;11.770;2024-02-23T07:50:19;94787.00;;;10.20
14851;BMP180;7517;48.400;11.770;2024-02-23T07:53:05;94785.00;;;10.30
14851;BMP180;7517;48.400;11.770;2024-02-23T07:55:54;94787.00;;;10.30
14851;BMP180;7517;48.400;11.770;2024-02-23T07:58:43;94784.00;;;10.30
14851;BMP180;7517;48.400;11.770;2024-02-23T08:01:29;94775.00;;;10.30
14851;BMP180;7517;48.400;11.770;2024-02-23T08:04:19;94774.00;;;10.30
14851;BMP180;7517;48.400;11.770;2024-02-23T08:07:07;94774.00;;;10.40
14851;BMP180;7517;48.400;11.770;2024-02-23T08:09:54;94766.00;;;10.40
14851;BMP180;7517;48.400;11.770;2024-02-23T08:12:40;94770.00;;;10.40
14851;BMP180;7517;48.400;11.770;2024-02-23T08:15:27;94771.00;;;10.50
14851;BMP180;7517;48.400;11.770;2024-02-23T08:18:15;94760.00;;;10.50
14851;BMP180;7517;48.400;11.770;2024-02-23T08:21:03;94757.00;;;10.50
14851;BMP180;7517;48.400;11.770;2024-02-23T08:23:50;94746.00;;;10.60
14851;BMP180;7517;48.400;11.770;2024-02-23T08:26:36;94755.00;;;10.60
14851;BMP180;7517;48.400;11.770;2024-02-23T08:29:26;94749.00;;;10.60
14851;BMP180;7517;48.400;11.770;2024-02-23T08:32:12;94759.00;;;10.70
14851;BMP180;7517;48.400;11.770;2024-02-23T08:34:58;94765.00;;;10.70
14851;BMP180;7517;48.400;11.770;2024-02-23T08:37:46;94743.00;;;10.70
14851;BMP180;7517;48.400;11.770;2024-02-23T08:40:34;94737.00;;;10.80
14851;BMP180;7517;48.400;11.770;2024-02-23T08:43:24;94744.00;;;10.90
14851;BMP180;7517;48.400;11.770;2024-02-23T08:46:10;94750.00;;;10.90
14851;BMP180;7517;48.400;11.770;2024-02-23T08:48:59;94757.00;;;10.90
14851;BMP180;7517;48.400;11.770;2024-02-23T08:51:44;94753.00;;;11.00
14851;BMP180;7517;48.400;11.770;2024-02-23T08:54:31;94759.00;;;11.00
14851;BMP180;7517;48.400;11.770;2024-02-23T08:57:17;94759.00;;;11.10
14851;BMP180;7517;48.400;11.770;2024-02-23T09:00:05;94768.00;;;11.10
14851;BMP180;7517;48.400;11.770;2024-02-23T09:02:51;94767.00;;;11.20
14851;BMP180;7517;48.400;11.770;2024-02-23T09:05:38;94778.00;;;11.20
14851;BMP180;7517;48.400;11.770;2024-02-23T09:08:24;94800.00;;;11.30
14851;BMP180;7517;48.400;11.770;2024-02-23T09:11:11;94814.00;;;11.30
14851;BMP180;7517;48.400;11.770;2024-02-23T09:13:59;94818.00;;;11.30
14851;BMP180;7517;48.400;11.770;2024-02-23T09:16:46;94809.00;;;11.30
14851;BMP180;7517;48.400;11.770;2024-02-23T09:19:35;94812.00;;;11.30
14851;BMP180;7517;48.400;11.770;2024-02-23T09:22:21;94822.00;;;11.30
14851;BMP180;7517;48.400;11.770;2024-02-23T09:25:08;94837.00;;;11.30
14851;BMP180;7517;48.400;11.770;2024-02-23T09:27:58;94849.00;;;11.30
14851;BMP180;7517;48.400;11.770;2024-02-23T09:30:44;94842.00;;;11.30
14851;BMP180;7517;48.400;11.770;2024-02-23T09:33:30;94847.00;;;11.30
14851;BMP180;7517;48.400;11.770;2024-02-23T09:36:16;94845.00;;;11.30
14851;BMP180;7517;48.400;11.770;2024-02-23T09:39:04;94836.00;;;11.30
14851;BMP180;7517;48.400;11.770;2024-02-23T09:41:50;94846.00;;;11.30
14851;BMP180;7517;48.400;11.770;2024-02-23T09:44:39;94845.00;;;11.20
14851;BMP180;7517;48.400;11.770;2024-02-23T09:47:28;94846.00;;;11.30
14851;BMP180;7517;48.400;11.770;2024-02-23T09:50:15;94845.00;;;11.20
14851;BMP180;7517;48.400;11.770;2024-02-23T09:53:05;94839.00;;;11.20
14851;BMP180;7517;48.400;11.770;2024-02-23T09:55:57;94841.00;;;11.20
14851;BMP180;7517;48.400;11.770;2024-02-23T09:58:48;94837.00;;;11.20
14851;BMP180;7517;48.400;11.770;2024-02-23T10:01:36;94851.00;;;11.20
14851;BMP180;7517;48.400;11.770;2024-02-23T10:04:21;94840.00;;;11.20
14851;BMP180;7517;48.400;11.770;2024-02-23T10:07:08;94834.00;;;11.20
14851;BMP180;7517;48.400;11.770;2024-02-23T10:09:54;94837.00;;;11.20
14851;BMP180;7517;48.400;11.770;2024-02-23T10:12:41;94830.00;;;11.20
14851;BMP180;7517;48.400;11.770;2024-02-23T10:15:29;94835.00;;;11.30
14851;BMP180;7517;48.400;11.770;2024-02-23T10:18:17;94843.00;;;11.30
14851;BMP180;7517;48.400;11.770;2024-02-23T10:21:04;94842.00;;;11.30
14851;BMP180;7517;48.400;11.770;2024-02-23T10:23:50;94840.00;;;11.30
14851;BMP180;7517;48.400;11.770;2024-02-23T10:26:37;94838.00;;;11.30
14851;BMP180;7517;48.400;11.770;2024-02-23T10:29:23;94837.00;;;11.30
14851;BMP180;7517;48.400;11.770;2024-02-23T10:32:15;94832.00;;;11.30
14851;BMP180;7517;48.400;11.770;2024-02-23T10:35:10;94838.00;;;11.30
14851;BMP180;7517;48.400;11.770;2024-02-23T10:37:58;94835.00;;;11.30
14851;BMP180;7517;48.400;11.770;2024-02-23T10:40:44;94831.00;;;11.30
14851;BMP180;7517;48.400;11.770;2024-02-23T10:43:39;94831.00;;;11.30
14851;BMP180;7517;48.400;11.770;2024-02-23T10:46:28;94823.00;;;11.30
14851;BMP180;7517;48.400;11.770;2024-02-23T10:49:17;94821.00;;;11.30
14851;BMP180;7517;48.400;11.770;2024-02-23T10:52:10;94818.00;;;11.30
14851;BMP180;7517;48.400;11.770;2024-02-23T10:55:01;94816.00;;;11.40
14851;BMP180;7517;48.400;11.770;2024-02-23T10:57:51;94824.00;;;11.40
14851;BMP180;7517;48.400;11.770;2024-02-23T11:00:39;94825.00;;;11.40
14851;BMP180;7517;48.400;11.770;2024-02-23T11:03:33;94826.00;;;11.50
14851;BMP180;7517;48.400;11.770;2024-02-23T11:06:29;94827.00;;;11.50
14851;BMP180;7517;48.400;11.770;2024-02-23T11:09:21;94822.00;;;11.50
14851;BMP180;7517;48.400;11.770;2024-02-23T11:12:09;94812.00;;;11.50
14851;BMP180;7517;48.400;11.770;2024-02-23T11:14:57;94810.00;;;11.60
14851;BMP180;7517;48.400;11.770;2024-02-23T11:17:50;94822.00;;;11.60
14851;BMP180;7517;48.400;11.770;2024-02-23T11:20:37;94814.00;;;11.60
14851;BMP180;7517;48.400;11.770;2024-02-23T11:23:24;94822.00;;;11.60
14851;BMP180;7517;48.400;11.770;2024-02-23T11:26:13;94813.00;;;11.60
14851;BMP180;7517;48.400;11.770;2024-02-23T11:29:09;94819.00;;;11.60
14851;BMP180;7517;48.400;11.770;2024-02-23T11:31:55;94809.00;;;11.60
14851;BMP180;7517;48.400;11.770;2024-02-23T11:34:55;94825.00;;;11.60
14851;BMP180;7517;48.400;11.770;2024-02-23T11:37:51;94822.00;;;11.50
14851;BMP180;7517;48.400;11.770;2024-02-23T11:40:41;94819.00;;;11.50
14851;BMP180;7517;48.400;11.770;2024-02-23T11:43:29;94825.00;;;11.50
14851;BMP180;7517;48.400;11.770;2024-02-23T11:46:15;94823.00;;;11.50
14851;BMP180;7517;48.400;11.770;2024-02-23T11:49:01;94817.00;;;11.50
14851;BMP180;7517;48.400;11.770;2024-02-23T11:51:47;94816.00;;;11.50
14851;BMP180;7517;48.400;11.770;2024-02-23T11:54:33;94810.00;;;11.50
14851;BMP180;7517;48.400;11.770;2024-02-23T11:57:19;94810.00;;;11.50
14851;BMP180;7517;48.400;11.770;2024-02-23T12:00:08;94809.00;;;11.50
14851;BMP180;7517;48.400;11.770;2024-02-23T12:02:54;94807.00;;;11.50
14851;BMP180;7517;48.400;11.770;2024-02-23T12:05:41;94811.00;;;11.50
14851;BMP180;7517;48.400;11.770;2024-02-23T12:08:31;94811.00;;;11.50
14851;BMP180;7517;48.400;11.770;2024-02-23T12:11:22;94808.00;;;11.50
14851;BMP180;7517;48.400;11.770;2024-02-23T12:14:09;94803.00;;;11.50
14851;BMP180;7517;48.400;11.770;2024-02-23T12:16:59;94798.00;;;11.50
14851;BMP180;7517;48.400;11.770;2024-02-23T12:19:47;94790.00;;;11.50
14851;BMP180;7517;48.400;11.770;2024-02-23T12:22:40;94790.00;;;11.60
14851;BMP180;7517;48.400;11.770;2024-02-23T12:25:27;94799.00;;;11.50
14851;BMP180;7517;48.400;11.770;2024-02-23T12:28:19;94808.00;;;11.50
14851;BMP180;7517;48.400;11.770;2024-02-23T12:31:06;94826.00;;;11.50
14851;BMP180;7517;48.400;11.770;2024-02-23T12:33:54;94812.00;;;11.50
14851;BMP180;7517;48.400;11.770;2024-02-23T12:36:43;94800.00;;;11.50
14851;BMP180;7517;48.400;11.770;2024-02-23T12:39:31;94798.00;;;11.40
14851;BMP180;7517;48.400;11.770;2024-02-23T12:42:18;94783.00;;;11.40
14851;BMP180;7517;48.400;11.770;2024-02-23T12:45:05;94780.00;;;11.40
14851;BMP180;7517;48.400;11.770;2024-02-23T12:47:52;94782.00;;;11.30
14851;BMP180;7517;48.400;11.770;2024-02-23T12:50:39;94785.00;;;11.30
14851;BMP180;7517;48.400;11.770;2024-02-23T12:53:34;94794.00;;;11.30
14851;BMP180;7517;48.400;11.770;2024-02-23T12:56:26;94784.00;;;11.30
14851;BMP180;7517;48.400;11.770;2024-02-23T12:59:12;94789.00;;;11.30
14851;BMP180;7517;48.400;11.770;2024-02-23T13:01:57;94794.00;;;11.30
14851;BMP180;7517;48.400;11.770;2024-02-23T13:04:43;94794.00;;;11.20
14851;BMP180;7517;48.400;11.770;2024-02-23T13:07:34;94800.00;;;11.20
14851;BMP180;7517;48.400;11.770;2024-02-23T13:10:22;94788.00;;;11.20
14851;BMP180;7517;48.400;11.770;2024-02-23T13:13:09;94778.00;;;11.20
14851;BMP180;7517;48.400;11.770;2024-02-23T13:15:55;94771.00;;;11.30
14851;BMP180;7517;48.400;11.770;2024-02-23T13:18:42;94768.00;;;11.30
14851;BMP180;7517;48.400;11.770;2024-02-23T13:21:31;94768.00;;;11.30
14851;BMP180;7517;48.400;11.770;2024-02-23T13:24:21;94776.00;;;11.30
14851;BMP180;7517;48.400;11.770;2024-02-23T13:27:07;94780.00;;;11.30
14851;BMP180;7517;48.400;11.770;2024-02-23T13:29:53;94787.00;;;11.30
14851;BMP180;7517;48.400;11.770;2024-02-23T13:32:39;94808.00;;;11.30
14851;BMP180;7517;48.400;11.770;2024-02-23T13:35:25;94810.00;;;11.30
14851;BMP180;7517;48.400;11.770;2024-02-23T13:38:11;94806.00;;;11.30
14851;BMP180;7517;48.400;11.770;2024-02-23T13:40:59;94823.00;;;11.30
14851;BMP180;7517;48.400;11.770;2024-02-23T13:43:45;94822.00;;;11.20
14851;BMP180;7517;48.400;11.770;2024-02-23T13:46:31;94816.00;;;11.20
14851;BMP180;7517;48.400;11.770;2024-02-23T13:49:19;94818.00;;;11.20
14851;BMP180;7517;48.400;11.770;2024-02-23T13:52:05;94798.00;;;11.10
14851;BMP180;7517;48.400;11.770;2024-02-23T13:54:53;94798.00;;;11.10
14851;BMP180;7517;48.400;11.770;2024-02-23T13:57:40;94784.00;;;11.10
14851;BMP180;7517;48.400;11.770;2024-02-23T14:00:26;94773.00;;;11.00
14851;BMP180;7517;48.400;11.770;2024-02-23T14:03:17;94768.00;;;10.90
14851;BMP180;7517;48.400;11.770;2024-02-23T14:06:04;94780.00;;;10.90
14851;BMP180;7517;48.400;11.770;2024-02-23T14:08:50;94768.00;;;10.90
14851;BMP180;7517;48.400;11.770;2024-02-23T14:11:37;94753.00;;;10.80
14851;BMP180;7517;48.400;11.770;2024-02-23T14:14:27;94749.00;;;10.80
14851;BMP180;7517;48.400;11.770;2024-02-23T14:17:13;94742.00;;;10.80
14851;BMP180;7517;48.400;11.770;2024-02-23T14:20:01;94728.00;;;10.80
14851;BMP180;7517;48.400;11.770;2024-02-23T14:22:49;94724.00;;;10.80
14851;BMP180;7517;48.400;11.770;2024-02-23T14:25:37;94727.00;;;10.70
14851;BMP180;7517;48.400;11.770;2024-02-23T14:28:23;94717.00;;;10.70
14851;BMP180;7517;48.400;11.770;2024-02-23T14:31:13;94708.00;;;10.70
14851;BMP180;7517;48.400;11.770;2024-02-23T14:34:00;94737.00;;;10.70
14851;BMP180;7517;48.400;11.770;2024-02-23T14:36:47;94756.00;;;10.70
14851;BMP180;7517;48.400;11.770;2024-02-23T14:39:37;94767.00;;;10.60
14851;BMP180;7517;48.400;11.770;2024-02-23T14:42:24;94752.00;;;10.60
14851;BMP180;7517;48.400;11.770;2024-02-23T14:45:11;94768.00;;;10.50
14851;BMP180;7517;48.400;11.770;2024-02-23T14:48:01;94793.00;;;10.50
14851;BMP180;7517;48.400;11.770;2024-02-23T14:50:47;94782.00;;;10.40
14851;BMP180;7517;48.400;11.770;2024-02-23T14:53:33;94783.00;;;10.40
14851;BMP180;7517;48.400;11.770;2024-02-23T14:56:20;94785.00;;;10.30
14851;BMP180;7517;48.400;11.770;2024-02-23T14:59:07;94792.00;;;10.30
14851;BMP180;7517;48.400;11.770;2024-02-23T15:01:55;94797.00;;;10.20
14851;BMP180;7517;48.400;11.770;2024-02-23T15:04:44;94783.00;;;10.10
14851;BMP180;7517;48.400;11.770;2024-02-23T15:07:30;94767.00;;;10.10
14851;BMP180;7517;48.400;11.770;2024-02-23T15:10:17;94747.00;;;10.00
14851;BMP180;7517;48.400;11.770;2024-02-23T15:13:04;94744.00;;;10.00
14851;BMP180;7517;48.400;11.770;2024-02-23T15:15:49;94764.00;;;9.90
14851;BMP180;7517;48.400;11.770;2024-02-23T15:18:40;94748.00;;;9.90
14851;BMP180;7517;48.400;11.770;2024-02-23T15:21:28;94742.00;;;9.80
14851;BMP180;7517;48.400;11.770;2024-02-23T15:24:15;94746.00;;;9.80
14851;BMP180;7517;48.400;11.770;2024-02-23T15:27:02;94741.00;;;9.80
14851;BMP180;7517;48.400;11.770;2024-02-23T15:29:48;94744.00;;;9.70
14851;BMP180;7517;48.400;11.770;2024-02-23T15:32:35;94775.00;;;9.70
14851;BMP180;7517;48.400;11.770;2024-02-23T15:35:21;94789.00;;;9.60
14851;BMP180;7517;48.400;11.770;2024-02-23T15:38:12;94789.00;;;9.60
14851;BMP180;7517;48.400;11.770;2024-02-23T15:40:58;94794.00;;;9.60
14851;BMP180;7517;48.400;11.770;2024-02-23T15:43:45;94753.00;;;9.60
14851;BMP180;7517;48.400;11.770;2024-02-23T15:46:31;94730.00;;;9.60
14851;BMP180;7517;48.400;11.770;2024-02-23T15:49:17;94738.00;;;9.60
14851;BMP180;7517;48.400;11.770;2024-02-23T15:52:06;94748.00;;;9.50
14851;BMP180;7517;48.400;11.770;2024-02-23T15:54:54;94747.00;;;9.50
14851;BMP180;7517;48.400;11.770;2024-02-23T15:57:40;94743.00;;;9.50
14851;BMP180;7517;48.400;11.770;2024-02-23T16:00:27;94748.00;;;9.50
14851;BMP180;7517;48.400;11.770;2024-02-23T16:03:15;94770.00;;;9.40
14851;BMP180;7517;48.400;11.770;2024-02-23T16:06:01;94785.00;;;9.40
14851;BMP180;7517;48.400;11.770;2024-02-23T16:08:47;94782.00;;;9.40